<?xml version='1.0' encoding='utf-8'?>
<gpx xmlns="http://www.topografix.com/GPX/1/1" creator="HOLUX ezTour Plus" version="1.1">
<metadata>
<link href="http://www.holux.com"><text>HOLUX Technology, Inc.</text></link>
<time>2012-08-01T18:46:23Z</time></metadata>
<trk>
<name>raw2</name>
<trkseg>
<trkpt lat="64.279777527" lon="-21.086629868">
<ele>114.5</ele>
<time>2012-07-19T12:01:36Z</time>
<speed>0.060000</speed>
<extensions>
<speed>0.1</speed>
<temp>0.00</temp>
<bpm>0</bpm>
<rpm>0.00</rpm>
</extensions>
</trkpt>
<trkpt lat="64.279830933" lon="-21.087423325">
<ele>114.6</ele>
<time>2012-07-19T12:08:41Z</time>
<speed>1.280000</speed>
<extensions>
<speed>1.3</speed>
<temp>0.00</temp>
<bpm>0</bpm>
<rpm>0.00</rpm>
</extensions>
</trkpt>
<trkpt lat="64.279396057" lon="-21.086935043">
<ele>114.5</ele>
<time>2012-07-19T12:13:46Z</time>
<speed>0.840000</speed>
<extensions>
<speed>0.8</speed>
<temp>0.00</temp>
<bpm>0</bpm>
<rpm>0.00</rpm>
</extensions>
</trkpt>
<trkpt lat="64.278976440" lon="-21.082771301">
<ele>116.5</ele>
<time>2012-07-19T12:14:56Z</time>
<speed>3.870000</speed>
<extensions>
<speed>3.9</speed>
<temp>0.00</temp>
<bpm>0</bpm>
<rpm>0.00</rpm>
</extensions>
</trkpt>
<trkpt lat="64.277252197" lon="-21.075679779">
<ele>122.9</ele>
<time>2012-07-19T12:16:56Z</time>
<speed>2.740000</speed>
<extensions>
<speed>2.7</speed>
<temp>0.00</temp>
<bpm>0</bpm>
<rpm>0.00</rpm>
</extensions>
</trkpt>
<trkpt lat="64.276344299" lon="-21.074522018">
<ele>123.8</ele>
<time>2012-07-19T12:17:26Z</time>
<speed>4.220000</speed>
<extensions>
<speed>4.2</speed>
<temp>0.00</temp>
<bpm>0</bpm>
<rpm>0.00</rpm>
</extensions>
</trkpt>
<trkpt lat="64.274978638" lon="-21.074243546">
<ele>121.4</ele>
<time>2012-07-19T12:18:01Z</time>
<speed>4.020000</speed>
<extensions>
<speed>4.0</speed>
<temp>0.00</temp>
<bpm>0</bpm>
<rpm>0.00</rpm>
</extensions>
</trkpt>
<trkpt lat="64.273765564" lon="-21.073131561">
<ele>120.0</ele>
<time>2012-07-19T12:18:31Z</time>
<speed>3.910000</speed>
<extensions>
<speed>3.9</speed>
<temp>0.00</temp>
<bpm>0</bpm>
<rpm>0.00</rpm>
</extensions>
</trkpt>
<trkpt lat="64.272300720" lon="-21.070007324">
<ele>125.8</ele>
<time>2012-07-19T12:19:26Z</time>
<speed>3.740000</speed>
<extensions>
<speed>3.7</speed>
<temp>0.00</temp>
<bpm>0</bpm>
<rpm>0.00</rpm>
</extensions>
</trkpt>
<trkpt lat="64.271011353" lon="-21.066614151">
<ele>128.9</ele>
<time>2012-07-19T12:20:16Z</time>
<speed>4.700000</speed>
<extensions>
<speed>4.7</speed>
<temp>0.00</temp>
<bpm>0</bpm>
<rpm>0.00</rpm>
</extensions>
</trkpt>
<trkpt lat="64.268112183" lon="-21.063476563">
<ele>130.0</ele>
<time>2012-07-19T12:21:31Z</time>
<speed>4.520000</speed>
<extensions>
<speed>4.5</speed>
<temp>0.00</temp>
<bpm>0</bpm>
<rpm>0.00</rpm>
</extensions>
</trkpt>
<trkpt lat="64.267372131" lon="-21.062330246">
<ele>129.1</ele>
<time>2012-07-19T12:21:51Z</time>
<speed>4.800000</speed>
<extensions>
<speed>4.8</speed>
<temp>0.00</temp>
<bpm>0</bpm>
<rpm>0.00</rpm>
</extensions>
</trkpt>
<trkpt lat="64.264404297" lon="-21.055450439">
<ele>119.9</ele>
<time>2012-07-19T12:23:11Z</time>
<speed>6.520000</speed>
<extensions>
<speed>6.5</speed>
<temp>0.00</temp>
<bpm>0</bpm>
<rpm>0.00</rpm>
</extensions>
</trkpt>
<trkpt lat="64.263015747" lon="-21.053228378">
<ele>118.3</ele>
<time>2012-07-19T12:23:41Z</time>
<speed>6.840000</speed>
<extensions>
<speed>6.8</speed>
<temp>0.00</temp>
<bpm>0</bpm>
<rpm>0.00</rpm>
</extensions>
</trkpt>
<trkpt lat="64.261672974" lon="-21.051607132">
<ele>116.7</ele>
<time>2012-07-19T12:24:06Z</time>
<speed>6.080000</speed>
<extensions>
<speed>6.1</speed>
<temp>0.00</temp>
<bpm>0</bpm>
<rpm>0.00</rpm>
</extensions>
</trkpt>
<trkpt lat="64.260986328" lon="-21.050191879">
<ele>115.5</ele>
<time>2012-07-19T12:24:26Z</time>
<speed>5.340000</speed>
<extensions>
<speed>5.3</speed>
<temp>0.00</temp>
<bpm>0</bpm>
<rpm>0.00</rpm>
</extensions>
</trkpt>
<trkpt lat="64.260482788" lon="-21.048599243">
<ele>119.1</ele>
<time>2012-07-19T12:24:46Z</time>
<speed>2.760000</speed>
<extensions>
<speed>2.8</speed>
<temp>0.00</temp>
<bpm>0</bpm>
<rpm>0.00</rpm>
</extensions>
</trkpt>
<trkpt lat="64.260078430" lon="-21.046129227">
<ele>120.6</ele>
<time>2012-07-19T12:25:21Z</time>
<speed>4.420000</speed>
<extensions>
<speed>4.4</speed>
<temp>0.00</temp>
<bpm>0</bpm>
<rpm>0.00</rpm>
</extensions>
</trkpt>
<trkpt lat="64.260124207" lon="-21.040616989">
<ele>130.9</ele>
<time>2012-07-19T12:26:36Z</time>
<speed>2.480000</speed>
<extensions>
<speed>2.5</speed>
<temp>0.00</temp>
<bpm>0</bpm>
<rpm>0.00</rpm>
</extensions>
</trkpt>
<trkpt lat="64.259994507" lon="-21.039106369">
<ele>135.6</ele>
<time>2012-07-19T12:27:11Z</time>
<speed>2.540000</speed>
<extensions>
<speed>2.5</speed>
<temp>0.00</temp>
<bpm>0</bpm>
<rpm>0.00</rpm>
</extensions>
</trkpt>
<trkpt lat="64.259628296" lon="-21.037696838">
<ele>140.0</ele>
<time>2012-07-19T12:27:41Z</time>
<speed>2.630000</speed>
<extensions>
<speed>2.6</speed>
<temp>0.00</temp>
<bpm>0</bpm>
<rpm>0.00</rpm>
</extensions>
</trkpt>
<trkpt lat="64.258483887" lon="-21.035629272">
<ele>148.9</ele>
<time>2012-07-19T12:30:16Z</time>
<extensions>
<speed>0.0</speed>
<temp>0.00</temp>
<bpm>0</bpm>
<rpm>0.00</rpm>
</extensions>
</trkpt>
<trkpt lat="64.258132935" lon="-21.033529282">
<ele>152.5</ele>
<time>2012-07-19T12:31:11Z</time>
<speed>4.160000</speed>
<extensions>
<speed>4.2</speed>
<temp>0.00</temp>
<bpm>0</bpm>
<rpm>0.00</rpm>
</extensions>
</trkpt>
<trkpt lat="64.258110046" lon="-21.031124115">
<ele>156.0</ele>
<time>2012-07-19T12:31:41Z</time>
<speed>1.830000</speed>
<extensions>
<speed>1.8</speed>
<temp>0.00</temp>
<bpm>0</bpm>
<rpm>0.00</rpm>
</extensions>
</trkpt>
<trkpt lat="64.257720947" lon="-21.029495239">
<ele>157.0</ele>
<time>2012-07-19T12:32:16Z</time>
<speed>2.330000</speed>
<extensions>
<speed>2.3</speed>
<temp>0.00</temp>
<bpm>0</bpm>
<rpm>0.00</rpm>
</extensions>
</trkpt>
<trkpt lat="64.256935120" lon="-21.028444290">
<ele>160.0</ele>
<time>2012-07-19T12:32:46Z</time>
<speed>3.220000</speed>
<extensions>
<speed>3.2</speed>
<temp>0.00</temp>
<bpm>0</bpm>
<rpm>0.00</rpm>
</extensions>
</trkpt>
<trkpt lat="64.253990173" lon="-21.026674271">
<ele>161.8</ele>
<time>2012-07-19T12:36:01Z</time>
<speed>5.030000</speed>
<extensions>
<speed>5.0</speed>
<temp>0.00</temp>
<bpm>0</bpm>
<rpm>0.00</rpm>
</extensions>
</trkpt>
<trkpt lat="64.251502991" lon="-21.022893906">
<ele>165.7</ele>
<time>2012-07-19T12:37:11Z</time>
<speed>2.650000</speed>
<extensions>
<speed>2.6</speed>
<temp>0.00</temp>
<bpm>0</bpm>
<rpm>0.00</rpm>
</extensions>
</trkpt>
<trkpt lat="64.250961304" lon="-21.022697449">
<ele>166.7</ele>
<time>2012-07-19T12:37:31Z</time>
<speed>3.700000</speed>
<extensions>
<speed>3.7</speed>
<temp>0.00</temp>
<bpm>0</bpm>
<rpm>0.00</rpm>
</extensions>
</trkpt>
<trkpt lat="64.248893738" lon="-21.023244858">
<ele>175.5</ele>
<time>2012-07-19T12:38:41Z</time>
<speed>2.150000</speed>
<extensions>
<speed>2.1</speed>
<temp>0.00</temp>
<bpm>0</bpm>
<rpm>0.00</rpm>
</extensions>
</trkpt>
<trkpt lat="64.248046875" lon="-21.023950577">
<ele>178.6</ele>
<time>2012-07-19T12:39:16Z</time>
<speed>2.390000</speed>
<extensions>
<speed>2.4</speed>
<temp>0.00</temp>
<bpm>0</bpm>
<rpm>0.00</rpm>
</extensions>
</trkpt>
<trkpt lat="64.247924805" lon="-21.024421692">
<ele>175.6</ele>
<time>2012-07-19T12:41:31Z</time>
<speed>0.760000</speed>
<extensions>
<speed>0.8</speed>
<temp>0.00</temp>
<bpm>0</bpm>
<rpm>0.00</rpm>
</extensions>
</trkpt>
<trkpt lat="64.247810364" lon="-21.024209976">
<ele>176.9</ele>
<time>2012-07-19T12:42:16Z</time>
<speed>1.210000</speed>
<extensions>
<speed>1.2</speed>
<temp>0.00</temp>
<bpm>0</bpm>
<rpm>0.00</rpm>
</extensions>
</trkpt>
<trkpt lat="64.244560242" lon="-21.024534225">
<ele>171.6</ele>
<time>2012-07-19T12:43:36Z</time>
<speed>6.020000</speed>
<extensions>
<speed>6.0</speed>
<temp>0.00</temp>
<bpm>0</bpm>
<rpm>0.00</rpm>
</extensions>
</trkpt>
<trkpt lat="64.241310120" lon="-21.027639389">
<ele>161.0</ele>
<time>2012-07-19T12:44:31Z</time>
<speed>9.310000</speed>
<extensions>
<speed>9.3</speed>
<temp>0.00</temp>
<bpm>0</bpm>
<rpm>0.00</rpm>
</extensions>
</trkpt>
<trkpt lat="64.240119934" lon="-21.028419495">
<ele>159.1</ele>
<time>2012-07-19T12:44:46Z</time>
<speed>9.240000</speed>
<extensions>
<speed>9.2</speed>
<temp>0.00</temp>
<bpm>0</bpm>
<rpm>0.00</rpm>
</extensions>
</trkpt>
<trkpt lat="64.237930298" lon="-21.029029846">
<ele>161.5</ele>
<time>2012-07-19T12:45:31Z</time>
<speed>4.710000</speed>
<extensions>
<speed>4.7</speed>
<temp>0.00</temp>
<bpm>0</bpm>
<rpm>0.00</rpm>
</extensions>
</trkpt>
<trkpt lat="64.235809326" lon="-21.028656006">
<ele>161.7</ele>
<time>2012-07-19T12:46:16Z</time>
<speed>5.980000</speed>
<extensions>
<speed>6.0</speed>
<temp>0.00</temp>
<bpm>0</bpm>
<rpm>0.00</rpm>
</extensions>
</trkpt>
<trkpt lat="64.233764648" lon="-21.029981613">
<ele>156.5</ele>
<time>2012-07-19T12:46:56Z</time>
<speed>7.070000</speed>
<extensions>
<speed>7.1</speed>
<temp>0.00</temp>
<bpm>0</bpm>
<rpm>0.00</rpm>
</extensions>
</trkpt>
<trkpt lat="64.233016968" lon="-21.031124115">
<ele>156.1</ele>
<time>2012-07-19T12:47:11Z</time>
<speed>6.880000</speed>
<extensions>
<speed>6.9</speed>
<temp>0.00</temp>
<bpm>0</bpm>
<rpm>0.00</rpm>
</extensions>
</trkpt>
<trkpt lat="64.232513428" lon="-21.032894135">
<ele>155.0</ele>
<time>2012-07-19T12:47:26Z</time>
<speed>6.770000</speed>
<extensions>
<speed>6.8</speed>
<temp>0.00</temp>
<bpm>0</bpm>
<rpm>0.00</rpm>
</extensions>
</trkpt>
<trkpt lat="64.232284546" lon="-21.037279129">
<ele>141.8</ele>
<time>2012-07-19T12:47:51Z</time>
<speed>11.860000</speed>
<extensions>
<speed>11.9</speed>
<temp>0.00</temp>
<bpm>0</bpm>
<rpm>0.00</rpm>
</extensions>
</trkpt>
<trkpt lat="64.231231689" lon="-21.042209625">
<ele>129.4</ele>
<time>2012-07-19T12:48:16Z</time>
<speed>7.870000</speed>
<extensions>
<speed>7.9</speed>
<temp>0.00</temp>
<bpm>0</bpm>
<rpm>0.00</rpm>
</extensions>
</trkpt>
<trkpt lat="64.230438232" lon="-21.048599243">
<ele>121.2</ele>
<time>2012-07-19T12:48:56Z</time>
<speed>7.140000</speed>
<extensions>
<speed>7.1</speed>
<temp>0.00</temp>
<bpm>0</bpm>
<rpm>0.00</rpm>
</extensions>
</trkpt>
<trkpt lat="64.229759216" lon="-21.050724030">
<ele>123.8</ele>
<time>2012-07-19T12:49:21Z</time>
<speed>4.180000</speed>
<extensions>
<speed>4.2</speed>
<temp>0.00</temp>
<bpm>0</bpm>
<rpm>0.00</rpm>
</extensions>
</trkpt>
<trkpt lat="64.228744507" lon="-21.051925659">
<ele>124.8</ele>
<time>2012-07-19T12:49:56Z</time>
<speed>3.810000</speed>
<extensions>
<speed>3.8</speed>
<temp>0.00</temp>
<bpm>0</bpm>
<rpm>0.00</rpm>
</extensions>
</trkpt>
<trkpt lat="64.221511841" lon="-21.054313660">
<ele>129.6</ele>
<time>2012-07-19T12:52:56Z</time>
<speed>3.480000</speed>
<extensions>
<speed>3.5</speed>
<temp>0.00</temp>
<bpm>0</bpm>
<rpm>0.00</rpm>
</extensions>
</trkpt>
<trkpt lat="64.220428467" lon="-21.054229736">
<ele>129.0</ele>
<time>2012-07-19T12:53:26Z</time>
<speed>4.410000</speed>
<extensions>
<speed>4.4</speed>
<temp>0.00</temp>
<bpm>0</bpm>
<rpm>0.00</rpm>
</extensions>
</trkpt>
<trkpt lat="64.219146729" lon="-21.053434372">
<ele>131.5</ele>
<time>2012-07-19T12:54:01Z</time>
<speed>3.320000</speed>
<extensions>
<speed>3.3</speed>
<temp>0.00</temp>
<bpm>0</bpm>
<rpm>0.00</rpm>
</extensions>
</trkpt>
<trkpt lat="64.205650330" lon="-21.039985657">
<ele>150.3</ele>
<time>2012-07-19T13:01:26Z</time>
<speed>3.750000</speed>
<extensions>
<speed>3.8</speed>
<temp>0.00</temp>
<bpm>0</bpm>
<rpm>0.00</rpm>
</extensions>
</trkpt>
<trkpt lat="64.198348999" lon="-21.030317307">
<ele>149.7</ele>
<time>2012-07-19T13:04:46Z</time>
<speed>3.780000</speed>
<extensions>
<speed>3.8</speed>
<temp>0.00</temp>
<bpm>0</bpm>
<rpm>0.00</rpm>
</extensions>
</trkpt>
<trkpt lat="64.196968079" lon="-21.027397156">
<ele>151.3</ele>
<time>2012-07-19T13:05:41Z</time>
<speed>4.280000</speed>
<extensions>
<speed>4.3</speed>
<temp>0.00</temp>
<bpm>0</bpm>
<rpm>0.00</rpm>
</extensions>
</trkpt>
<trkpt lat="64.196006775" lon="-21.024253845">
<ele>149.1</ele>
<time>2012-07-19T13:06:21Z</time>
<speed>5.360000</speed>
<extensions>
<speed>5.4</speed>
<temp>0.00</temp>
<bpm>0</bpm>
<rpm>0.00</rpm>
</extensions>
</trkpt>
<trkpt lat="64.195205688" lon="-21.020107269">
<ele>149.4</ele>
<time>2012-07-19T13:07:01Z</time>
<speed>5.640000</speed>
<extensions>
<speed>5.6</speed>
<temp>0.00</temp>
<bpm>0</bpm>
<rpm>0.00</rpm>
</extensions>
</trkpt>
<trkpt lat="64.194839478" lon="-21.016397476">
<ele>150.7</ele>
<time>2012-07-19T13:07:36Z</time>
<speed>4.690000</speed>
<extensions>
<speed>4.7</speed>
<temp>0.00</temp>
<bpm>0</bpm>
<rpm>0.00</rpm>
</extensions>
</trkpt>
<trkpt lat="64.194847107" lon="-21.011638641">
<ele>152.5</ele>
<time>2012-07-19T13:08:26Z</time>
<speed>4.790000</speed>
<extensions>
<speed>4.8</speed>
<temp>0.00</temp>
<bpm>0</bpm>
<rpm>0.00</rpm>
</extensions>
</trkpt>
<trkpt lat="64.196136475" lon="-20.988965988">
<ele>174.7</ele>
<time>2012-07-19T13:13:36Z</time>
<speed>3.980000</speed>
<extensions>
<speed>4.0</speed>
<temp>0.00</temp>
<bpm>0</bpm>
<rpm>0.00</rpm>
</extensions>
</trkpt>
<trkpt lat="64.196098328" lon="-20.980312347">
<ele>180.1</ele>
<time>2012-07-19T13:15:21Z</time>
<speed>2.670000</speed>
<extensions>
<speed>2.7</speed>
<temp>0.00</temp>
<bpm>0</bpm>
<rpm>0.00</rpm>
</extensions>
</trkpt>
<trkpt lat="64.195411682" lon="-20.970708847">
<ele>198.5</ele>
<time>2012-07-19T13:17:56Z</time>
<speed>3.280000</speed>
<extensions>
<speed>3.3</speed>
<temp>0.00</temp>
<bpm>0</bpm>
<rpm>0.00</rpm>
</extensions>
</trkpt>
<trkpt lat="64.192848206" lon="-20.949914932">
<ele>205.7</ele>
<time>2012-07-19T13:21:51Z</time>
<speed>2.960000</speed>
<extensions>
<speed>3.0</speed>
<temp>0.00</temp>
<bpm>0</bpm>
<rpm>0.00</rpm>
</extensions>
</trkpt>
<trkpt lat="64.192565918" lon="-20.950237274">
<ele>205.5</ele>
<time>2012-07-19T13:22:01Z</time>
<speed>3.620000</speed>
<extensions>
<speed>3.6</speed>
<temp>0.00</temp>
<bpm>0</bpm>
<rpm>0.00</rpm>
</extensions>
</trkpt>
<trkpt lat="64.192375183" lon="-20.951360703">
<ele>204.9</ele>
<time>2012-07-19T13:22:46Z</time>
<speed>0.050000</speed>
<extensions>
<speed>0.1</speed>
<temp>0.00</temp>
<bpm>0</bpm>
<rpm>0.00</rpm>
</extensions>
</trkpt>
<trkpt lat="64.192848206" lon="-20.949399948">
<ele>205.7</ele>
<time>2012-07-19T13:43:31Z</time>
<speed>3.110000</speed>
<extensions>
<speed>3.1</speed>
<temp>0.00</temp>
<bpm>0</bpm>
<rpm>0.00</rpm>
</extensions>
</trkpt>
<trkpt lat="64.192047119" lon="-20.942733765">
<ele>204.4</ele>
<time>2012-07-19T13:44:46Z</time>
<speed>4.560000</speed>
<extensions>
<speed>4.6</speed>
<temp>0.00</temp>
<bpm>0</bpm>
<rpm>0.00</rpm>
</extensions>
</trkpt>
<trkpt lat="64.191726685" lon="-20.938400269">
<ele>205.3</ele>
<time>2012-07-19T13:45:26Z</time>
<speed>5.670000</speed>
<extensions>
<speed>5.7</speed>
<temp>0.00</temp>
<bpm>0</bpm>
<rpm>0.00</rpm>
</extensions>
</trkpt>
<trkpt lat="64.191528320" lon="-20.932548523">
<ele>204.7</ele>
<time>2012-07-19T13:46:16Z</time>
<speed>5.330000</speed>
<extensions>
<speed>5.3</speed>
<temp>0.00</temp>
<bpm>0</bpm>
<rpm>0.00</rpm>
</extensions>
</trkpt>
<trkpt lat="64.191596985" lon="-20.927963257">
<ele>208.1</ele>
<time>2012-07-19T13:46:56Z</time>
<speed>5.580000</speed>
<extensions>
<speed>5.6</speed>
<temp>0.00</temp>
<bpm>0</bpm>
<rpm>0.00</rpm>
</extensions>
</trkpt>
<trkpt lat="64.191978455" lon="-20.921840668">
<ele>207.7</ele>
<time>2012-07-19T13:47:46Z</time>
<speed>6.640000</speed>
<extensions>
<speed>6.6</speed>
<temp>0.00</temp>
<bpm>0</bpm>
<rpm>0.00</rpm>
</extensions>
</trkpt>
<trkpt lat="64.192649841" lon="-20.915910721">
<ele>200.6</ele>
<time>2012-07-19T13:48:26Z</time>
<speed>8.340000</speed>
<extensions>
<speed>8.3</speed>
<temp>0.00</temp>
<bpm>0</bpm>
<rpm>0.00</rpm>
</extensions>
</trkpt>
<trkpt lat="64.193580627" lon="-20.910409927">
<ele>199.4</ele>
<time>2012-07-19T13:49:01Z</time>
<speed>8.020000</speed>
<extensions>
<speed>8.0</speed>
<temp>0.00</temp>
<bpm>0</bpm>
<rpm>0.00</rpm>
</extensions>
</trkpt>
<trkpt lat="64.195259094" lon="-20.902395248">
<ele>188.6</ele>
<time>2012-07-19T13:49:51Z</time>
<speed>9.230000</speed>
<extensions>
<speed>9.2</speed>
<temp>0.00</temp>
<bpm>0</bpm>
<rpm>0.00</rpm>
</extensions>
</trkpt>
<trkpt lat="64.196403503" lon="-20.894920349">
<ele>185.2</ele>
<time>2012-07-19T13:50:36Z</time>
<speed>7.770000</speed>
<extensions>
<speed>7.8</speed>
<temp>0.00</temp>
<bpm>0</bpm>
<rpm>0.00</rpm>
</extensions>
</trkpt>
<trkpt lat="64.197731018" lon="-20.879373550">
<ele>177.3</ele>
<time>2012-07-19T13:52:21Z</time>
<speed>7.460000</speed>
<extensions>
<speed>7.5</speed>
<temp>0.00</temp>
<bpm>0</bpm>
<rpm>0.00</rpm>
</extensions>
</trkpt>
<trkpt lat="64.199760437" lon="-20.865058899">
<ele>183.1</ele>
<time>2012-07-19T13:54:21Z</time>
<speed>4.950000</speed>
<extensions>
<speed>4.9</speed>
<temp>0.00</temp>
<bpm>0</bpm>
<rpm>0.00</rpm>
</extensions>
</trkpt>
<trkpt lat="64.200210571" lon="-20.858507156">
<ele>187.5</ele>
<time>2012-07-19T13:55:51Z</time>
<speed>0.490000</speed>
<extensions>
<speed>0.5</speed>
<temp>0.00</temp>
<bpm>0</bpm>
<rpm>0.00</rpm>
</extensions>
</trkpt>
<trkpt lat="64.201087952" lon="-20.859050751">
<ele>189.4</ele>
<time>2012-07-19T13:58:11Z</time>
<speed>3.100000</speed>
<extensions>
<speed>3.1</speed>
<temp>0.00</temp>
<bpm>0</bpm>
<rpm>0.00</rpm>
</extensions>
</trkpt>
<trkpt lat="64.202064514" lon="-20.861526489">
<ele>189.6</ele>
<time>2012-07-19T13:58:51Z</time>
<speed>4.480000</speed>
<extensions>
<speed>4.5</speed>
<temp>0.00</temp>
<bpm>0</bpm>
<rpm>0.00</rpm>
</extensions>
</trkpt>
<trkpt lat="64.202766418" lon="-20.862583160">
<ele>189.4</ele>
<time>2012-07-19T13:59:11Z</time>
<speed>4.710000</speed>
<extensions>
<speed>4.7</speed>
<temp>0.00</temp>
<bpm>0</bpm>
<rpm>0.00</rpm>
</extensions>
</trkpt>
<trkpt lat="64.204574585" lon="-20.863475800">
<ele>191.0</ele>
<time>2012-07-19T14:00:06Z</time>
<speed>1.210000</speed>
<extensions>
<speed>1.2</speed>
<temp>0.00</temp>
<bpm>0</bpm>
<rpm>0.00</rpm>
</extensions>
</trkpt>
<trkpt lat="64.205688477" lon="-20.864791870">
<ele>191.4</ele>
<time>2012-07-19T14:00:56Z</time>
<speed>3.490000</speed>
<extensions>
<speed>3.5</speed>
<temp>0.00</temp>
<bpm>0</bpm>
<rpm>0.00</rpm>
</extensions>
</trkpt>
<trkpt lat="64.206665039" lon="-20.865436554">
<ele>191.2</ele>
<time>2012-07-19T14:01:26Z</time>
<speed>4.300000</speed>
<extensions>
<speed>4.3</speed>
<temp>0.00</temp>
<bpm>0</bpm>
<rpm>0.00</rpm>
</extensions>
</trkpt>
<trkpt lat="64.207435608" lon="-20.865348816">
<ele>189.2</ele>
<time>2012-07-19T14:01:46Z</time>
<speed>4.530000</speed>
<extensions>
<speed>4.5</speed>
<temp>0.00</temp>
<bpm>0</bpm>
<rpm>0.00</rpm>
</extensions>
</trkpt>
<trkpt lat="64.208213806" lon="-20.864671707">
<ele>187.6</ele>
<time>2012-07-19T14:02:06Z</time>
<speed>4.650000</speed>
<extensions>
<speed>4.6</speed>
<temp>0.00</temp>
<bpm>0</bpm>
<rpm>0.00</rpm>
</extensions>
</trkpt>
<trkpt lat="64.209793091" lon="-20.861515045">
<ele>185.8</ele>
<time>2012-07-19T14:02:56Z</time>
<speed>5.030000</speed>
<extensions>
<speed>5.0</speed>
<temp>0.00</temp>
<bpm>0</bpm>
<rpm>0.00</rpm>
</extensions>
</trkpt>
<trkpt lat="64.210861206" lon="-20.860391617">
<ele>184.2</ele>
<time>2012-07-19T14:03:21Z</time>
<speed>4.720000</speed>
<extensions>
<speed>4.7</speed>
<temp>0.00</temp>
<bpm>0</bpm>
<rpm>0.00</rpm>
</extensions>
</trkpt>
<trkpt lat="64.212234497" lon="-20.860303879">
<ele>182.1</ele>
<time>2012-07-19T14:03:51Z</time>
<speed>4.620000</speed>
<extensions>
<speed>4.6</speed>
<temp>0.00</temp>
<bpm>0</bpm>
<rpm>0.00</rpm>
</extensions>
</trkpt>
<trkpt lat="64.213516235" lon="-20.861625671">
<ele>180.8</ele>
<time>2012-07-19T14:04:21Z</time>
<speed>5.020000</speed>
<extensions>
<speed>5.0</speed>
<temp>0.00</temp>
<bpm>0</bpm>
<rpm>0.00</rpm>
</extensions>
</trkpt>
<trkpt lat="64.213912964" lon="-20.862779617">
<ele>179.4</ele>
<time>2012-07-19T14:04:41Z</time>
<speed>3.310000</speed>
<extensions>
<speed>3.3</speed>
<temp>0.00</temp>
<bpm>0</bpm>
<rpm>0.00</rpm>
</extensions>
</trkpt>
<trkpt lat="64.214164734" lon="-20.866409302">
<ele>177.2</ele>
<time>2012-07-19T14:05:41Z</time>
<speed>3.920000</speed>
<extensions>
<speed>3.9</speed>
<temp>0.00</temp>
<bpm>0</bpm>
<rpm>0.00</rpm>
</extensions>
</trkpt>
<trkpt lat="64.214286804" lon="-20.873971939">
<ele>176.0</ele>
<time>2012-07-19T14:07:11Z</time>
<speed>3.570000</speed>
<extensions>
<speed>3.6</speed>
<temp>0.00</temp>
<bpm>0</bpm>
<rpm>0.00</rpm>
</extensions>
</trkpt>
<trkpt lat="64.212570190" lon="-20.887332916">
<ele>175.0</ele>
<time>2012-07-19T14:10:26Z</time>
<speed>0.270000</speed>
<extensions>
<speed>0.3</speed>
<temp>0.00</temp>
<bpm>0</bpm>
<rpm>0.00</rpm>
</extensions>
</trkpt>
<trkpt lat="64.213401794" lon="-20.887716293">
<ele>175.5</ele>
<time>2012-07-19T14:12:21Z</time>
<speed>3.250000</speed>
<extensions>
<speed>3.2</speed>
<temp>0.00</temp>
<bpm>0</bpm>
<rpm>0.00</rpm>
</extensions>
</trkpt>
<trkpt lat="64.213951111" lon="-20.887470245">
<ele>176.1</ele>
<time>2012-07-19T14:12:41Z</time>
<speed>3.550000</speed>
<extensions>
<speed>3.5</speed>
<temp>0.00</temp>
<bpm>0</bpm>
<rpm>0.00</rpm>
</extensions>
</trkpt>
<trkpt lat="64.216308594" lon="-20.883737564">
<ele>176.9</ele>
<time>2012-07-19T14:18:56Z</time>
<speed>1.310000</speed>
<extensions>
<speed>1.3</speed>
<temp>0.00</temp>
<bpm>0</bpm>
<rpm>0.00</rpm>
</extensions>
</trkpt>
<trkpt lat="64.217376709" lon="-20.883722305">
<ele>187.2</ele>
<time>2012-07-19T14:20:21Z</time>
<speed>1.340000</speed>
<extensions>
<speed>1.3</speed>
<temp>0.00</temp>
<bpm>0</bpm>
<rpm>0.00</rpm>
</extensions>
</trkpt>
<trkpt lat="64.217544556" lon="-20.884035110">
<ele>191.5</ele>
<time>2012-07-19T14:20:46Z</time>
<speed>1.110000</speed>
<extensions>
<speed>1.1</speed>
<temp>0.00</temp>
<bpm>0</bpm>
<rpm>0.00</rpm>
</extensions>
</trkpt>
<trkpt lat="64.217437744" lon="-20.883865356">
<ele>188.7</ele>
<time>2012-07-19T14:21:01Z</time>
<speed>0.600000</speed>
<extensions>
<speed>0.6</speed>
<temp>0.00</temp>
<bpm>0</bpm>
<rpm>0.00</rpm>
</extensions>
</trkpt>
<trkpt lat="64.217781067" lon="-20.883689880">
<ele>192.1</ele>
<time>2012-07-19T14:21:41Z</time>
<speed>0.840000</speed>
<extensions>
<speed>0.8</speed>
<temp>0.00</temp>
<bpm>0</bpm>
<rpm>0.00</rpm>
</extensions>
</trkpt>
<trkpt lat="64.218162537" lon="-20.884506226">
<ele>201.7</ele>
<time>2012-07-19T14:22:51Z</time>
<speed>0.780000</speed>
<extensions>
<speed>0.8</speed>
<temp>0.00</temp>
<bpm>0</bpm>
<rpm>0.00</rpm>
</extensions>
</trkpt>
<trkpt lat="64.217781067" lon="-20.883663177">
<ele>191.9</ele>
<time>2012-07-19T14:26:26Z</time>
<speed>1.070000</speed>
<extensions>
<speed>1.1</speed>
<temp>0.00</temp>
<bpm>0</bpm>
<rpm>0.00</rpm>
</extensions>
</trkpt>
<trkpt lat="64.217338562" lon="-20.883905411">
<ele>187.4</ele>
<time>2012-07-19T14:27:26Z</time>
<speed>1.120000</speed>
<extensions>
<speed>1.1</speed>
<temp>0.00</temp>
<bpm>0</bpm>
<rpm>0.00</rpm>
</extensions>
</trkpt>
<trkpt lat="64.216445923" lon="-20.883691788">
<ele>177.6</ele>
<time>2012-07-19T14:28:46Z</time>
<speed>1.190000</speed>
<extensions>
<speed>1.2</speed>
<temp>0.00</temp>
<bpm>0</bpm>
<rpm>0.00</rpm>
</extensions>
</trkpt>
<trkpt lat="64.213874817" lon="-20.887512207">
<ele>176.1</ele>
<time>2012-07-19T14:33:11Z</time>
<speed>1.330000</speed>
<extensions>
<speed>1.3</speed>
<temp>0.00</temp>
<bpm>0</bpm>
<rpm>0.00</rpm>
</extensions>
</trkpt>
<trkpt lat="64.213264465" lon="-20.887762070">
<ele>175.5</ele>
<time>2012-07-19T14:33:36Z</time>
<speed>3.740000</speed>
<extensions>
<speed>3.7</speed>
<temp>0.00</temp>
<bpm>0</bpm>
<rpm>0.00</rpm>
</extensions>
</trkpt>
<trkpt lat="64.212539673" lon="-20.887254715">
<ele>175.0</ele>
<time>2012-07-19T14:34:06Z</time>
<speed>1.930000</speed>
<extensions>
<speed>1.9</speed>
<temp>0.00</temp>
<bpm>0</bpm>
<rpm>0.00</rpm>
</extensions>
</trkpt>
<trkpt lat="64.214172363" lon="-20.874248505">
<ele>175.9</ele>
<time>2012-07-19T14:37:51Z</time>
<speed>3.620000</speed>
<extensions>
<speed>3.6</speed>
<temp>0.00</temp>
<bpm>0</bpm>
<rpm>0.00</rpm>
</extensions>
</trkpt>
<trkpt lat="64.214218140" lon="-20.868976593">
<ele>176.4</ele>
<time>2012-07-19T14:38:56Z</time>
<speed>3.760000</speed>
<extensions>
<speed>3.8</speed>
<temp>0.00</temp>
<bpm>0</bpm>
<rpm>0.00</rpm>
</extensions>
</trkpt>
<trkpt lat="64.213920593" lon="-20.862562180">
<ele>179.9</ele>
<time>2012-07-19T14:45:46Z</time>
<speed>2.010000</speed>
<extensions>
<speed>2.0</speed>
<temp>0.00</temp>
<bpm>0</bpm>
<rpm>0.00</rpm>
</extensions>
</trkpt>
<trkpt lat="64.213653564" lon="-20.861898422">
<ele>180.5</ele>
<time>2012-07-19T14:46:01Z</time>
<speed>2.720000</speed>
<extensions>
<speed>2.7</speed>
<temp>0.00</temp>
<bpm>0</bpm>
<rpm>0.00</rpm>
</extensions>
</trkpt>
<trkpt lat="64.212440491" lon="-20.860498428">
<ele>182.0</ele>
<time>2012-07-19T14:46:46Z</time>
<speed>3.420000</speed>
<extensions>
<speed>3.4</speed>
<temp>0.00</temp>
<bpm>0</bpm>
<rpm>0.00</rpm>
</extensions>
</trkpt>
<trkpt lat="64.212028503" lon="-20.858840942">
<ele>183.8</ele>
<time>2012-07-19T14:47:16Z</time>
<speed>3.230000</speed>
<extensions>
<speed>3.2</speed>
<temp>0.00</temp>
<bpm>0</bpm>
<rpm>0.00</rpm>
</extensions>
</trkpt>
<trkpt lat="64.211914063" lon="-20.853401184">
<ele>187.9</ele>
<time>2012-07-19T14:49:21Z</time>
<extensions>
<speed>0.0</speed>
<temp>0.00</temp>
<bpm>0</bpm>
<rpm>0.00</rpm>
</extensions>
</trkpt>
<trkpt lat="64.211799622" lon="-20.853513718">
<ele>187.7</ele>
<time>2012-07-19T14:56:06Z</time>
<speed>0.030000</speed>
<extensions>
<speed>0.0</speed>
<temp>0.00</temp>
<bpm>0</bpm>
<rpm>0.00</rpm>
</extensions>
</trkpt>
<trkpt lat="64.211494446" lon="-20.848361969">
<ele>192.5</ele>
<time>2012-07-19T14:58:36Z</time>
<speed>3.120000</speed>
<extensions>
<speed>3.1</speed>
<temp>0.00</temp>
<bpm>0</bpm>
<rpm>0.00</rpm>
</extensions>
</trkpt>
<trkpt lat="64.211456299" lon="-20.845785141">
<ele>195.4</ele>
<time>2012-07-19T14:59:16Z</time>
<speed>3.620000</speed>
<extensions>
<speed>3.6</speed>
<temp>0.00</temp>
<bpm>0</bpm>
<rpm>0.00</rpm>
</extensions>
</trkpt>
<trkpt lat="64.211631775" lon="-20.843229294">
<ele>199.8</ele>
<time>2012-07-19T14:59:56Z</time>
<speed>2.610000</speed>
<extensions>
<speed>2.6</speed>
<temp>0.00</temp>
<bpm>0</bpm>
<rpm>0.00</rpm>
</extensions>
</trkpt>
<trkpt lat="64.211288452" lon="-20.840057373">
<ele>199.8</ele>
<time>2012-07-19T15:00:46Z</time>
<speed>3.990000</speed>
<extensions>
<speed>4.0</speed>
<temp>0.00</temp>
<bpm>0</bpm>
<rpm>0.00</rpm>
</extensions>
</trkpt>
<trkpt lat="64.211273193" lon="-20.834621429">
<ele>205.1</ele>
<time>2012-07-19T15:01:56Z</time>
<speed>3.160000</speed>
<extensions>
<speed>3.2</speed>
<temp>0.00</temp>
<bpm>0</bpm>
<rpm>0.00</rpm>
</extensions>
</trkpt>
<trkpt lat="64.211639404" lon="-20.828483582">
<ele>207.4</ele>
<time>2012-07-19T15:03:26Z</time>
<speed>3.710000</speed>
<extensions>
<speed>3.7</speed>
<temp>0.00</temp>
<bpm>0</bpm>
<rpm>0.00</rpm>
</extensions>
</trkpt>
<trkpt lat="64.211662292" lon="-20.823860168">
<ele>216.3</ele>
<time>2012-07-19T15:04:41Z</time>
<speed>2.100000</speed>
<extensions>
<speed>2.1</speed>
<temp>0.00</temp>
<bpm>0</bpm>
<rpm>0.00</rpm>
</extensions>
</trkpt>
<trkpt lat="64.212211609" lon="-20.820379257">
<ele>217.7</ele>
<time>2012-07-19T15:05:41Z</time>
<speed>3.650000</speed>
<extensions>
<speed>3.7</speed>
<temp>0.00</temp>
<bpm>0</bpm>
<rpm>0.00</rpm>
</extensions>
</trkpt>
<trkpt lat="64.212394714" lon="-20.815710068">
<ele>221.0</ele>
<time>2012-07-19T15:06:51Z</time>
<speed>3.380000</speed>
<extensions>
<speed>3.4</speed>
<temp>0.00</temp>
<bpm>0</bpm>
<rpm>0.00</rpm>
</extensions>
</trkpt>
<trkpt lat="64.212173462" lon="-20.811286926">
<ele>225.2</ele>
<time>2012-07-19T15:07:56Z</time>
<speed>2.640000</speed>
<extensions>
<speed>2.6</speed>
<temp>0.00</temp>
<bpm>0</bpm>
<rpm>0.00</rpm>
</extensions>
</trkpt>
<trkpt lat="64.212219238" lon="-20.806039810">
<ele>239.4</ele>
<time>2012-07-19T15:10:01Z</time>
<speed>2.070000</speed>
<extensions>
<speed>2.1</speed>
<temp>0.00</temp>
<bpm>0</bpm>
<rpm>0.00</rpm>
</extensions>
</trkpt>
<trkpt lat="64.211997986" lon="-20.803770065">
<ele>240.0</ele>
<time>2012-07-19T15:10:36Z</time>
<speed>3.890000</speed>
<extensions>
<speed>3.9</speed>
<temp>0.00</temp>
<bpm>0</bpm>
<rpm>0.00</rpm>
</extensions>
</trkpt>
<trkpt lat="64.211235046" lon="-20.799381256">
<ele>238.6</ele>
<time>2012-07-19T15:14:06Z</time>
<speed>1.410000</speed>
<extensions>
<speed>1.4</speed>
<temp>0.00</temp>
<bpm>0</bpm>
<rpm>0.00</rpm>
</extensions>
</trkpt>
<trkpt lat="64.212440491" lon="-20.792774200">
<ele>213.4</ele>
<time>2012-07-19T15:15:11Z</time>
<speed>8.850000</speed>
<extensions>
<speed>8.9</speed>
<temp>0.00</temp>
<bpm>0</bpm>
<rpm>0.00</rpm>
</extensions>
</trkpt>
<trkpt lat="64.211700439" lon="-20.789630890">
<ele>209.4</ele>
<time>2012-07-19T15:15:36Z</time>
<speed>8.150000</speed>
<extensions>
<speed>8.2</speed>
<temp>0.00</temp>
<bpm>0</bpm>
<rpm>0.00</rpm>
</extensions>
</trkpt>
<trkpt lat="64.210845947" lon="-20.781679153">
<ele>214.7</ele>
<time>2012-07-19T15:17:11Z</time>
<speed>1.540000</speed>
<extensions>
<speed>1.5</speed>
<temp>0.00</temp>
<bpm>0</bpm>
<rpm>0.00</rpm>
</extensions>
</trkpt>
<trkpt lat="64.211158752" lon="-20.778478622">
<ele>206.6</ele>
<time>2012-07-19T15:18:21Z</time>
<speed>6.870000</speed>
<extensions>
<speed>6.9</speed>
<temp>0.00</temp>
<bpm>0</bpm>
<rpm>0.00</rpm>
</extensions>
</trkpt>
<trkpt lat="64.211364746" lon="-20.777671814">
<ele>204.0</ele>
<time>2012-07-19T15:18:26Z</time>
<speed>11.230000</speed>
<extensions>
<speed>11.2</speed>
<temp>0.00</temp>
<bpm>0</bpm>
<rpm>0.00</rpm>
</extensions>
</trkpt>
<trkpt lat="64.212249756" lon="-20.776054382">
<ele>190.5</ele>
<time>2012-07-19T15:18:36Z</time>
<speed>10.010000</speed>
<extensions>
<speed>10.0</speed>
<temp>0.00</temp>
<bpm>0</bpm>
<rpm>0.00</rpm>
</extensions>
</trkpt>
<trkpt lat="64.210533142" lon="-20.771377563">
<ele>183.8</ele>
<time>2012-07-19T15:19:16Z</time>
<speed>8.890000</speed>
<extensions>
<speed>8.9</speed>
<temp>0.00</temp>
<bpm>0</bpm>
<rpm>0.00</rpm>
</extensions>
</trkpt>
<trkpt lat="64.210227966" lon="-20.769538879">
<ele>178.9</ele>
<time>2012-07-19T15:19:26Z</time>
<speed>10.520000</speed>
<extensions>
<speed>10.5</speed>
<temp>0.00</temp>
<bpm>0</bpm>
<rpm>0.00</rpm>
</extensions>
</trkpt>
<trkpt lat="64.210220337" lon="-20.768491745">
<ele>175.0</ele>
<time>2012-07-19T15:19:31Z</time>
<speed>9.940000</speed>
<extensions>
<speed>9.9</speed>
<temp>0.00</temp>
<bpm>0</bpm>
<rpm>0.00</rpm>
</extensions>
</trkpt>
<trkpt lat="64.210662842" lon="-20.765674591">
<ele>161.6</ele>
<time>2012-07-19T15:19:46Z</time>
<speed>8.460000</speed>
<extensions>
<speed>8.5</speed>
<temp>0.00</temp>
<bpm>0</bpm>
<rpm>0.00</rpm>
</extensions>
</trkpt>
<trkpt lat="64.211036682" lon="-20.758430481">
<ele>129.0</ele>
<time>2012-07-19T15:20:21Z</time>
<speed>10.700000</speed>
<extensions>
<speed>10.7</speed>
<temp>0.00</temp>
<bpm>0</bpm>
<rpm>0.00</rpm>
</extensions>
</trkpt>
<trkpt lat="64.212127686" lon="-20.749116898">
<ele>102.6</ele>
<time>2012-07-19T15:21:01Z</time>
<speed>10.340000</speed>
<extensions>
<speed>10.3</speed>
<temp>0.00</temp>
<bpm>0</bpm>
<rpm>0.00</rpm>
</extensions>
</trkpt>
<trkpt lat="64.212142944" lon="-20.748035431">
<ele>97.8</ele>
<time>2012-07-19T15:21:06Z</time>
<speed>9.030000</speed>
<extensions>
<speed>9.0</speed>
<temp>0.00</temp>
<bpm>0</bpm>
<rpm>0.00</rpm>
</extensions>
</trkpt>
<trkpt lat="64.211791992" lon="-20.747030258">
<ele>92.4</ele>
<time>2012-07-19T15:21:26Z</time>
<speed>4.750000</speed>
<extensions>
<speed>4.8</speed>
<temp>0.00</temp>
<bpm>0</bpm>
<rpm>0.00</rpm>
</extensions>
</trkpt>
<trkpt lat="64.211898804" lon="-20.743883133">
<ele>87.5</ele>
<time>2012-07-19T15:21:46Z</time>
<speed>8.640000</speed>
<extensions>
<speed>8.6</speed>
<temp>0.00</temp>
<bpm>0</bpm>
<rpm>0.00</rpm>
</extensions>
</trkpt>
<trkpt lat="64.211647034" lon="-20.742986679">
<ele>85.6</ele>
<time>2012-07-19T15:22:06Z</time>
<speed>0.010000</speed>
<extensions>
<speed>0.0</speed>
<temp>0.00</temp>
<bpm>0</bpm>
<rpm>0.00</rpm>
</extensions>
</trkpt>
<trkpt lat="64.212242126" lon="-20.742015839">
<ele>86.4</ele>
<time>2012-07-19T15:23:16Z</time>
<speed>4.620000</speed>
<extensions>
<speed>4.6</speed>
<temp>0.00</temp>
<bpm>0</bpm>
<rpm>0.00</rpm>
</extensions>
</trkpt>
<trkpt lat="64.213081360" lon="-20.738542557">
<ele>87.5</ele>
<time>2012-07-19T15:23:56Z</time>
<speed>3.870000</speed>
<extensions>
<speed>3.9</speed>
<temp>0.00</temp>
<bpm>0</bpm>
<rpm>0.00</rpm>
</extensions>
</trkpt>
<trkpt lat="64.213554382" lon="-20.737478256">
<ele>87.0</ele>
<time>2012-07-19T15:24:16Z</time>
<speed>4.360000</speed>
<extensions>
<speed>4.4</speed>
<temp>0.00</temp>
<bpm>0</bpm>
<rpm>0.00</rpm>
</extensions>
</trkpt>
<trkpt lat="64.216278076" lon="-20.735210419">
<ele>82.8</ele>
<time>2012-07-19T15:25:21Z</time>
<speed>5.050000</speed>
<extensions>
<speed>5.1</speed>
<temp>0.00</temp>
<bpm>0</bpm>
<rpm>0.00</rpm>
</extensions>
</trkpt>
<trkpt lat="64.216629028" lon="-20.734670639">
<ele>81.4</ele>
<time>2012-07-19T15:25:31Z</time>
<speed>4.090000</speed>
<extensions>
<speed>4.1</speed>
<temp>0.00</temp>
<bpm>0</bpm>
<rpm>0.00</rpm>
</extensions>
</trkpt>
<trkpt lat="64.216743469" lon="-20.733955383">
<ele>79.8</ele>
<time>2012-07-19T15:46:16Z</time>
<speed>0.010000</speed>
<extensions>
<speed>0.0</speed>
<temp>0.00</temp>
<bpm>0</bpm>
<rpm>0.00</rpm>
</extensions>
</trkpt>
<trkpt lat="64.217391968" lon="-20.734060287">
<ele>79.7</ele>
<time>2012-07-19T16:31:36Z</time>
<speed>3.270000</speed>
<extensions>
<speed>3.3</speed>
<temp>0.00</temp>
<bpm>0</bpm>
<rpm>0.00</rpm>
</extensions>
</trkpt>
<trkpt lat="64.219429016" lon="-20.732172012">
<ele>76.5</ele>
<time>2012-07-19T16:32:26Z</time>
<speed>5.880000</speed>
<extensions>
<speed>5.9</speed>
<temp>0.00</temp>
<bpm>0</bpm>
<rpm>0.00</rpm>
</extensions>
</trkpt>
<trkpt lat="64.231849670" lon="-20.713256836">
<ele>70.7</ele>
<time>2012-07-19T16:36:46Z</time>
<speed>6.780000</speed>
<extensions>
<speed>6.8</speed>
<temp>0.00</temp>
<bpm>0</bpm>
<rpm>0.00</rpm>
</extensions>
</trkpt>
<trkpt lat="64.237495422" lon="-20.701869965">
<ele>75.9</ele>
<time>2012-07-19T16:39:31Z</time>
<speed>5.840000</speed>
<extensions>
<speed>5.8</speed>
<temp>0.00</temp>
<bpm>0</bpm>
<rpm>0.00</rpm>
</extensions>
</trkpt>
<trkpt lat="64.239379883" lon="-20.696691513">
<ele>75.2</ele>
<time>2012-07-19T16:40:26Z</time>
<speed>5.010000</speed>
<extensions>
<speed>5.0</speed>
<temp>0.00</temp>
<bpm>0</bpm>
<rpm>0.00</rpm>
</extensions>
</trkpt>
<trkpt lat="64.239990234" lon="-20.693382263">
<ele>77.4</ele>
<time>2012-07-19T16:41:01Z</time>
<speed>4.350000</speed>
<extensions>
<speed>4.3</speed>
<temp>0.00</temp>
<bpm>0</bpm>
<rpm>0.00</rpm>
</extensions>
</trkpt>
<trkpt lat="64.240882874" lon="-20.681903839">
<ele>87.2</ele>
<time>2012-07-19T16:43:51Z</time>
<speed>5.070000</speed>
<extensions>
<speed>5.1</speed>
<temp>0.00</temp>
<bpm>0</bpm>
<rpm>0.00</rpm>
</extensions>
</trkpt>
<trkpt lat="64.240547180" lon="-20.667417526">
<ele>78.9</ele>
<time>2012-07-19T16:45:46Z</time>
<speed>5.180000</speed>
<extensions>
<speed>5.2</speed>
<temp>0.00</temp>
<bpm>0</bpm>
<rpm>0.00</rpm>
</extensions>
</trkpt>
<trkpt lat="64.240066528" lon="-20.664299011">
<ele>80.2</ele>
<time>2012-07-19T16:46:16Z</time>
<speed>4.870000</speed>
<extensions>
<speed>4.9</speed>
<temp>0.00</temp>
<bpm>0</bpm>
<rpm>0.00</rpm>
</extensions>
</trkpt>
<trkpt lat="64.235961914" lon="-20.643039703">
<ele>93.1</ele>
<time>2012-07-19T16:50:51Z</time>
<speed>3.670000</speed>
<extensions>
<speed>3.7</speed>
<temp>0.00</temp>
<bpm>0</bpm>
<rpm>0.00</rpm>
</extensions>
</trkpt>
<trkpt lat="64.235343933" lon="-20.640682220">
<ele>93.2</ele>
<time>2012-07-19T16:51:21Z</time>
<speed>4.810000</speed>
<extensions>
<speed>4.8</speed>
<temp>0.00</temp>
<bpm>0</bpm>
<rpm>0.00</rpm>
</extensions>
</trkpt>
<trkpt lat="64.234283447" lon="-20.638137817">
<ele>92.5</ele>
<time>2012-07-19T16:51:56Z</time>
<speed>5.100000</speed>
<extensions>
<speed>5.1</speed>
<temp>0.00</temp>
<bpm>0</bpm>
<rpm>0.00</rpm>
</extensions>
</trkpt>
<trkpt lat="64.231857300" lon="-20.634807587">
<ele>92.6</ele>
<time>2012-07-19T16:53:01Z</time>
<speed>4.880000</speed>
<extensions>
<speed>4.9</speed>
<temp>0.00</temp>
<bpm>0</bpm>
<rpm>0.00</rpm>
</extensions>
</trkpt>
<trkpt lat="64.230651855" lon="-20.633939743">
<ele>89.0</ele>
<time>2012-07-19T16:53:26Z</time>
<speed>5.920000</speed>
<extensions>
<speed>5.9</speed>
<temp>0.00</temp>
<bpm>0</bpm>
<rpm>0.00</rpm>
</extensions>
</trkpt>
<trkpt lat="64.227104187" lon="-20.633232117">
<ele>79.2</ele>
<time>2012-07-19T16:54:26Z</time>
<speed>6.030000</speed>
<extensions>
<speed>6.0</speed>
<temp>0.00</temp>
<bpm>0</bpm>
<rpm>0.00</rpm>
</extensions>
</trkpt>
<trkpt lat="64.226379395" lon="-20.632680893">
<ele>77.5</ele>
<time>2012-07-19T16:54:41Z</time>
<speed>5.610000</speed>
<extensions>
<speed>5.6</speed>
<temp>0.00</temp>
<bpm>0</bpm>
<rpm>0.00</rpm>
</extensions>
</trkpt>
<trkpt lat="64.225494385" lon="-20.631265640">
<ele>76.8</ele>
<time>2012-07-19T16:55:01Z</time>
<speed>5.620000</speed>
<extensions>
<speed>5.6</speed>
<temp>0.00</temp>
<bpm>0</bpm>
<rpm>0.00</rpm>
</extensions>
</trkpt>
<trkpt lat="64.224693298" lon="-20.628303528">
<ele>71.4</ele>
<time>2012-07-19T16:55:31Z</time>
<speed>5.860000</speed>
<extensions>
<speed>5.9</speed>
<temp>0.00</temp>
<bpm>0</bpm>
<rpm>0.00</rpm>
</extensions>
</trkpt>
<trkpt lat="64.224456787" lon="-20.622961044">
<ele>71.0</ele>
<time>2012-07-19T16:56:11Z</time>
<speed>6.810000</speed>
<extensions>
<speed>6.8</speed>
<temp>0.00</temp>
<bpm>0</bpm>
<rpm>0.00</rpm>
</extensions>
</trkpt>
<trkpt lat="64.223175049" lon="-20.616598129">
<ele>68.2</ele>
<time>2012-07-19T16:57:06Z</time>
<speed>6.320000</speed>
<extensions>
<speed>6.3</speed>
<temp>0.00</temp>
<bpm>0</bpm>
<rpm>0.00</rpm>
</extensions>
</trkpt>
<trkpt lat="64.223060608" lon="-20.614761353">
<ele>68.5</ele>
<time>2012-07-19T16:57:21Z</time>
<speed>5.640000</speed>
<extensions>
<speed>5.6</speed>
<temp>0.00</temp>
<bpm>0</bpm>
<rpm>0.00</rpm>
</extensions>
</trkpt>
<trkpt lat="64.223197937" lon="-20.612743378">
<ele>70.4</ele>
<time>2012-07-19T16:57:41Z</time>
<speed>4.840000</speed>
<extensions>
<speed>4.8</speed>
<temp>0.00</temp>
<bpm>0</bpm>
<rpm>0.00</rpm>
</extensions>
</trkpt>
<trkpt lat="64.223587036" lon="-20.610900879">
<ele>69.6</ele>
<time>2012-07-19T16:58:01Z</time>
<speed>4.800000</speed>
<extensions>
<speed>4.8</speed>
<temp>0.00</temp>
<bpm>0</bpm>
<rpm>0.00</rpm>
</extensions>
</trkpt>
<trkpt lat="64.225303650" lon="-20.605237961">
<ele>73.8</ele>
<time>2012-07-19T16:59:11Z</time>
<speed>4.070000</speed>
<extensions>
<speed>4.1</speed>
<temp>0.00</temp>
<bpm>0</bpm>
<rpm>0.00</rpm>
</extensions>
</trkpt>
<trkpt lat="64.225715637" lon="-20.602319717">
<ele>72.0</ele>
<time>2012-07-19T16:59:41Z</time>
<speed>6.190000</speed>
<extensions>
<speed>6.2</speed>
<temp>0.00</temp>
<bpm>0</bpm>
<rpm>0.00</rpm>
</extensions>
</trkpt>
<trkpt lat="64.225654602" lon="-20.598915100">
<ele>72.7</ele>
<time>2012-07-19T17:00:06Z</time>
<speed>6.470000</speed>
<extensions>
<speed>6.5</speed>
<temp>0.00</temp>
<bpm>0</bpm>
<rpm>0.00</rpm>
</extensions>
</trkpt>
<trkpt lat="64.224609375" lon="-20.583749771">
<ele>79.7</ele>
<time>2012-07-19T17:02:41Z</time>
<speed>4.740000</speed>
<extensions>
<speed>4.7</speed>
<temp>0.00</temp>
<bpm>0</bpm>
<rpm>0.00</rpm>
</extensions>
</trkpt>
<trkpt lat="64.224693298" lon="-20.579895020">
<ele>77.3</ele>
<time>2012-07-19T17:03:16Z</time>
<speed>5.640000</speed>
<extensions>
<speed>5.6</speed>
<temp>0.00</temp>
<bpm>0</bpm>
<rpm>0.00</rpm>
</extensions>
</trkpt>
<trkpt lat="64.225196838" lon="-20.575553894">
<ele>78.6</ele>
<time>2012-07-19T17:03:56Z</time>
<speed>4.850000</speed>
<extensions>
<speed>4.8</speed>
<temp>0.00</temp>
<bpm>0</bpm>
<rpm>0.00</rpm>
</extensions>
</trkpt>
<trkpt lat="64.225685120" lon="-20.573556900">
<ele>80.4</ele>
<time>2012-07-19T17:04:21Z</time>
<speed>4.480000</speed>
<extensions>
<speed>4.5</speed>
<temp>0.00</temp>
<bpm>0</bpm>
<rpm>0.00</rpm>
</extensions>
</trkpt>
<trkpt lat="64.226402283" lon="-20.571746826">
<ele>78.8</ele>
<time>2012-07-19T17:04:46Z</time>
<speed>4.740000</speed>
<extensions>
<speed>4.7</speed>
<temp>0.00</temp>
<bpm>0</bpm>
<rpm>0.00</rpm>
</extensions>
</trkpt>
<trkpt lat="64.227340698" lon="-20.570306778">
<ele>80.1</ele>
<time>2012-07-19T17:05:11Z</time>
<speed>5.110000</speed>
<extensions>
<speed>5.1</speed>
<temp>0.00</temp>
<bpm>0</bpm>
<rpm>0.00</rpm>
</extensions>
</trkpt>
<trkpt lat="64.229461670" lon="-20.567911148">
<ele>82.3</ele>
<time>2012-07-19T17:06:01Z</time>
<speed>5.930000</speed>
<extensions>
<speed>5.9</speed>
<temp>0.00</temp>
<bpm>0</bpm>
<rpm>0.00</rpm>
</extensions>
</trkpt>
<trkpt lat="64.231323242" lon="-20.565166473">
<ele>80.8</ele>
<time>2012-07-19T17:06:41Z</time>
<speed>6.780000</speed>
<extensions>
<speed>6.8</speed>
<temp>0.00</temp>
<bpm>0</bpm>
<rpm>0.00</rpm>
</extensions>
</trkpt>
<trkpt lat="64.237991333" lon="-20.552772522">
<ele>93.0</ele>
<time>2012-07-19T17:09:56Z</time>
<speed>5.450000</speed>
<extensions>
<speed>5.5</speed>
<temp>0.00</temp>
<bpm>0</bpm>
<rpm>0.00</rpm>
</extensions>
</trkpt>
<trkpt lat="64.239067078" lon="-20.549858093">
<ele>88.5</ele>
<time>2012-07-19T17:10:26Z</time>
<speed>7.170000</speed>
<extensions>
<speed>7.2</speed>
<temp>0.00</temp>
<bpm>0</bpm>
<rpm>0.00</rpm>
</extensions>
</trkpt>
<trkpt lat="64.239463806" lon="-20.547660828">
<ele>86.7</ele>
<time>2012-07-19T17:10:41Z</time>
<speed>7.530000</speed>
<extensions>
<speed>7.5</speed>
<temp>0.00</temp>
<bpm>0</bpm>
<rpm>0.00</rpm>
</extensions>
</trkpt>
<trkpt lat="64.239677429" lon="-20.544755936">
<ele>85.2</ele>
<time>2012-07-19T17:11:01Z</time>
<speed>6.900000</speed>
<extensions>
<speed>6.9</speed>
<temp>0.00</temp>
<bpm>0</bpm>
<rpm>0.00</rpm>
</extensions>
</trkpt>
<trkpt lat="64.240020752" lon="-20.517621994">
<ele>84.5</ele>
<time>2012-07-19T17:16:16Z</time>
<speed>5.920000</speed>
<extensions>
<speed>5.9</speed>
<temp>0.00</temp>
<bpm>0</bpm>
<rpm>0.00</rpm>
</extensions>
</trkpt>
<trkpt lat="64.240737915" lon="-20.511589050">
<ele>87.5</ele>
<time>2012-07-19T17:17:16Z</time>
<speed>5.400000</speed>
<extensions>
<speed>5.4</speed>
<temp>0.00</temp>
<bpm>0</bpm>
<rpm>0.00</rpm>
</extensions>
</trkpt>
<trkpt lat="64.241584778" lon="-20.507846832">
<ele>88.8</ele>
<time>2012-07-19T17:17:56Z</time>
<speed>5.280000</speed>
<extensions>
<speed>5.3</speed>
<temp>0.00</temp>
<bpm>0</bpm>
<rpm>0.00</rpm>
</extensions>
</trkpt>
<trkpt lat="64.242370605" lon="-20.505420685">
<ele>88.5</ele>
<time>2012-07-19T17:18:21Z</time>
<speed>6.350000</speed>
<extensions>
<speed>6.4</speed>
<temp>0.00</temp>
<bpm>0</bpm>
<rpm>0.00</rpm>
</extensions>
</trkpt>
<trkpt lat="64.243476868" lon="-20.502767563">
<ele>88.7</ele>
<time>2012-07-19T17:18:51Z</time>
<speed>5.240000</speed>
<extensions>
<speed>5.2</speed>
<temp>0.00</temp>
<bpm>0</bpm>
<rpm>0.00</rpm>
</extensions>
</trkpt>
<trkpt lat="64.246772766" lon="-20.496562958">
<ele>95.0</ele>
<time>2012-07-19T17:20:36Z</time>
<speed>4.330000</speed>
<extensions>
<speed>4.3</speed>
<temp>0.00</temp>
<bpm>0</bpm>
<rpm>0.00</rpm>
</extensions>
</trkpt>
<trkpt lat="64.248512268" lon="-20.493955612">
<ele>92.3</ele>
<time>2012-07-19T17:21:26Z</time>
<speed>5.370000</speed>
<extensions>
<speed>5.4</speed>
<temp>0.00</temp>
<bpm>0</bpm>
<rpm>0.00</rpm>
</extensions>
</trkpt>
<trkpt lat="64.252540588" lon="-20.488716125">
<ele>103.0</ele>
<time>2012-07-19T17:23:41Z</time>
<speed>5.100000</speed>
<extensions>
<speed>5.1</speed>
<temp>0.00</temp>
<bpm>0</bpm>
<rpm>0.00</rpm>
</extensions>
</trkpt>
<trkpt lat="64.254753113" lon="-20.483976364">
<ele>95.7</ele>
<time>2012-07-19T17:24:36Z</time>
<speed>6.320000</speed>
<extensions>
<speed>6.3</speed>
<temp>0.00</temp>
<bpm>0</bpm>
<rpm>0.00</rpm>
</extensions>
</trkpt>
<trkpt lat="64.258644104" lon="-20.474580765">
<ele>102.2</ele>
<time>2012-07-19T17:26:46Z</time>
<speed>3.280000</speed>
<extensions>
<speed>3.3</speed>
<temp>0.00</temp>
<bpm>0</bpm>
<rpm>0.00</rpm>
</extensions>
</trkpt>
<trkpt lat="64.264595032" lon="-20.467796326">
<ele>118.7</ele>
<time>2012-07-19T17:37:36Z</time>
<speed>3.590000</speed>
<extensions>
<speed>3.6</speed>
<temp>0.00</temp>
<bpm>0</bpm>
<rpm>0.00</rpm>
</extensions>
</trkpt>
<trkpt lat="64.266517639" lon="-20.464458466">
<ele>117.0</ele>
<time>2012-07-19T17:38:31Z</time>
<speed>6.280000</speed>
<extensions>
<speed>6.3</speed>
<temp>0.00</temp>
<bpm>0</bpm>
<rpm>0.00</rpm>
</extensions>
</trkpt>
<trkpt lat="64.267341614" lon="-20.462356567">
<ele>112.5</ele>
<time>2012-07-19T17:38:51Z</time>
<speed>7.420000</speed>
<extensions>
<speed>7.4</speed>
<temp>0.00</temp>
<bpm>0</bpm>
<rpm>0.00</rpm>
</extensions>
</trkpt>
<trkpt lat="64.270301819" lon="-20.452959061">
<ele>108.0</ele>
<time>2012-07-19T17:40:16Z</time>
<speed>4.990000</speed>
<extensions>
<speed>5.0</speed>
<temp>0.00</temp>
<bpm>0</bpm>
<rpm>0.00</rpm>
</extensions>
</trkpt>
<trkpt lat="64.275344849" lon="-20.436691284">
<ele>122.4</ele>
<time>2012-07-19T17:43:56Z</time>
<speed>3.840000</speed>
<extensions>
<speed>3.8</speed>
<temp>0.00</temp>
<bpm>0</bpm>
<rpm>0.00</rpm>
</extensions>
</trkpt>
<trkpt lat="64.276428223" lon="-20.432723999">
<ele>119.6</ele>
<time>2012-07-19T17:44:46Z</time>
<speed>5.030000</speed>
<extensions>
<speed>5.0</speed>
<temp>0.00</temp>
<bpm>0</bpm>
<rpm>0.00</rpm>
</extensions>
</trkpt>
<trkpt lat="64.276771545" lon="-20.430521011">
<ele>116.4</ele>
<time>2012-07-19T17:45:06Z</time>
<speed>6.260000</speed>
<extensions>
<speed>6.3</speed>
<temp>0.00</temp>
<bpm>0</bpm>
<rpm>0.00</rpm>
</extensions>
</trkpt>
<trkpt lat="64.276939392" lon="-20.427661896">
<ele>113.9</ele>
<time>2012-07-19T17:45:26Z</time>
<speed>6.670000</speed>
<extensions>
<speed>6.7</speed>
<temp>0.00</temp>
<bpm>0</bpm>
<rpm>0.00</rpm>
</extensions>
</trkpt>
<trkpt lat="64.276893616" lon="-20.419231415">
<ele>113.9</ele>
<time>2012-07-19T17:46:46Z</time>
<speed>3.400000</speed>
<extensions>
<speed>3.4</speed>
<temp>0.00</temp>
<bpm>0</bpm>
<rpm>0.00</rpm>
</extensions>
</trkpt>
<trkpt lat="64.276725769" lon="-20.416458130">
<ele>120.3</ele>
<time>2012-07-19T17:47:36Z</time>
<speed>2.470000</speed>
<extensions>
<speed>2.5</speed>
<temp>0.00</temp>
<bpm>0</bpm>
<rpm>0.00</rpm>
</extensions>
</trkpt>
<trkpt lat="64.276290894" lon="-20.412963867">
<ele>125.3</ele>
<time>2012-07-19T17:48:51Z</time>
<speed>2.870000</speed>
<extensions>
<speed>2.9</speed>
<temp>0.00</temp>
<bpm>0</bpm>
<rpm>0.00</rpm>
</extensions>
</trkpt>
<trkpt lat="64.274353027" lon="-20.404411316">
<ele>125.3</ele>
<time>2012-07-19T17:50:51Z</time>
<speed>4.950000</speed>
<extensions>
<speed>4.9</speed>
<temp>0.00</temp>
<bpm>0</bpm>
<rpm>0.00</rpm>
</extensions>
</trkpt>
<trkpt lat="64.273185730" lon="-20.393907547">
<ele>118.1</ele>
<time>2012-07-19T17:52:21Z</time>
<speed>6.280000</speed>
<extensions>
<speed>6.3</speed>
<temp>0.00</temp>
<bpm>0</bpm>
<rpm>0.00</rpm>
</extensions>
</trkpt>
<trkpt lat="64.271278381" lon="-20.386369705">
<ele>114.4</ele>
<time>2012-07-19T17:53:31Z</time>
<speed>6.010000</speed>
<extensions>
<speed>6.0</speed>
<temp>0.00</temp>
<bpm>0</bpm>
<rpm>0.00</rpm>
</extensions>
</trkpt>
<trkpt lat="64.270835876" lon="-20.382083893">
<ele>109.5</ele>
<time>2012-07-19T17:54:06Z</time>
<speed>7.290000</speed>
<extensions>
<speed>7.3</speed>
<temp>0.00</temp>
<bpm>0</bpm>
<rpm>0.00</rpm>
</extensions>
</trkpt>
<trkpt lat="64.271064758" lon="-20.377399445">
<ele>103.9</ele>
<time>2012-07-19T17:54:36Z</time>
<speed>7.350000</speed>
<extensions>
<speed>7.3</speed>
<temp>0.00</temp>
<bpm>0</bpm>
<rpm>0.00</rpm>
</extensions>
</trkpt>
<trkpt lat="64.272216797" lon="-20.370954514">
<ele>103.2</ele>
<time>2012-07-19T17:55:21Z</time>
<speed>5.910000</speed>
<extensions>
<speed>5.9</speed>
<temp>0.00</temp>
<bpm>0</bpm>
<rpm>0.00</rpm>
</extensions>
</trkpt>
<trkpt lat="64.272918701" lon="-20.359592438">
<ele>99.7</ele>
<time>2012-07-19T17:56:51Z</time>
<speed>6.630000</speed>
<extensions>
<speed>6.6</speed>
<temp>0.00</temp>
<bpm>0</bpm>
<rpm>0.00</rpm>
</extensions>
</trkpt>
<trkpt lat="64.273544312" lon="-20.356206894">
<ele>99.2</ele>
<time>2012-07-19T17:57:21Z</time>
<speed>6.040000</speed>
<extensions>
<speed>6.0</speed>
<temp>0.00</temp>
<bpm>0</bpm>
<rpm>0.00</rpm>
</extensions>
</trkpt>
<trkpt lat="64.274322510" lon="-20.354198456">
<ele>98.4</ele>
<time>2012-07-19T17:57:41Z</time>
<speed>6.820000</speed>
<extensions>
<speed>6.8</speed>
<temp>0.00</temp>
<bpm>0</bpm>
<rpm>0.00</rpm>
</extensions>
</trkpt>
<trkpt lat="64.276611328" lon="-20.349868774">
<ele>97.3</ele>
<time>2012-07-19T17:58:36Z</time>
<speed>6.650000</speed>
<extensions>
<speed>6.7</speed>
<temp>0.00</temp>
<bpm>0</bpm>
<rpm>0.00</rpm>
</extensions>
</trkpt>
<trkpt lat="64.284431458" lon="-20.341276169">
<ele>99.9</ele>
<time>2012-07-19T18:01:46Z</time>
<speed>3.800000</speed>
<extensions>
<speed>3.8</speed>
<temp>0.00</temp>
<bpm>0</bpm>
<rpm>0.00</rpm>
</extensions>
</trkpt>
<trkpt lat="64.300582886" lon="-20.330945969">
<ele>92.8</ele>
<time>2012-07-19T18:07:21Z</time>
<speed>5.240000</speed>
<extensions>
<speed>5.2</speed>
<temp>0.00</temp>
<bpm>0</bpm>
<rpm>0.00</rpm>
</extensions>
</trkpt>
<trkpt lat="64.302757263" lon="-20.328798294">
<ele>90.4</ele>
<time>2012-07-19T18:08:06Z</time>
<speed>6.940000</speed>
<extensions>
<speed>6.9</speed>
<temp>0.00</temp>
<bpm>0</bpm>
<rpm>0.00</rpm>
</extensions>
</trkpt>
<trkpt lat="64.303749084" lon="-20.326902390">
<ele>89.3</ele>
<time>2012-07-19T18:08:26Z</time>
<speed>6.640000</speed>
<extensions>
<speed>6.6</speed>
<temp>0.00</temp>
<bpm>0</bpm>
<rpm>0.00</rpm>
</extensions>
</trkpt>
<trkpt lat="64.304626465" lon="-20.324253082">
<ele>88.7</ele>
<time>2012-07-19T18:08:51Z</time>
<speed>6.560000</speed>
<extensions>
<speed>6.6</speed>
<temp>0.00</temp>
<bpm>0</bpm>
<rpm>0.00</rpm>
</extensions>
</trkpt>
<trkpt lat="64.309547424" lon="-20.303432465">
<ele>103.0</ele>
<time>2012-07-19T18:13:11Z</time>
<speed>2.470000</speed>
<extensions>
<speed>2.5</speed>
<temp>0.00</temp>
<bpm>0</bpm>
<rpm>0.00</rpm>
</extensions>
</trkpt>
<trkpt lat="64.309829712" lon="-20.301504135">
<ele>104.0</ele>
<time>2012-07-19T18:14:16Z</time>
<speed>1.090000</speed>
<extensions>
<speed>1.1</speed>
<temp>0.00</temp>
<bpm>0</bpm>
<rpm>0.00</rpm>
</extensions>
</trkpt>
<trkpt lat="64.309722900" lon="-20.301992416">
<ele>106.1</ele>
<time>2012-07-19T18:15:21Z</time>
<speed>1.340000</speed>
<extensions>
<speed>1.3</speed>
<temp>0.00</temp>
<bpm>0</bpm>
<rpm>0.00</rpm>
</extensions>
</trkpt>
<trkpt lat="64.309806824" lon="-20.301572800">
<ele>104.1</ele>
<time>2012-07-19T18:15:41Z</time>
<speed>0.880000</speed>
<extensions>
<speed>0.9</speed>
<temp>0.00</temp>
<bpm>0</bpm>
<rpm>0.00</rpm>
</extensions>
</trkpt>
<trkpt lat="64.309692383" lon="-20.301284790">
<ele>103.2</ele>
<time>2012-07-19T18:16:06Z</time>
<speed>0.400000</speed>
<extensions>
<speed>0.4</speed>
<temp>0.00</temp>
<bpm>0</bpm>
<rpm>0.00</rpm>
</extensions>
</trkpt>
<trkpt lat="64.309875488" lon="-20.301557541">
<ele>104.4</ele>
<time>2012-07-19T18:17:01Z</time>
<speed>1.890000</speed>
<extensions>
<speed>1.9</speed>
<temp>0.00</temp>
<bpm>0</bpm>
<rpm>0.00</rpm>
</extensions>
</trkpt>
<trkpt lat="64.309402466" lon="-20.304862976">
<ele>99.6</ele>
<time>2012-07-19T18:17:56Z</time>
<speed>2.910000</speed>
<extensions>
<speed>2.9</speed>
<temp>0.00</temp>
<bpm>0</bpm>
<rpm>0.00</rpm>
</extensions>
</trkpt>
<trkpt lat="64.310134888" lon="-20.306003571">
<ele>101.5</ele>
<time>2012-07-19T18:32:56Z</time>
<speed>0.020000</speed>
<extensions>
<speed>0.0</speed>
<temp>0.00</temp>
<bpm>0</bpm>
<rpm>0.00</rpm>
</extensions>
</trkpt>
<trkpt lat="64.310585022" lon="-20.305257797">
<ele>103.2</ele>
<time>2012-07-19T21:19:56Z</time>
<extensions>
<speed>0.0</speed>
<temp>0.00</temp>
<bpm>0</bpm>
<rpm>0.00</rpm>
</extensions>
</trkpt>
</trkseg>
</trk>
</gpx>